Time;durP1;ratioP1;P1;durP2;ratioP2;P2;SDS_P1;SDS_P2;PMS_P1;PMS_P2;Temp;Humidity;BMP_temperature;BMP_pressure;BME280_temperature;BME280_humidity;BME280_pressure;Samples;Min_cycle;Max_cycle;Signal;HPM_P1;HPM_P2
2021/05/16 00:02:23;;;;;;;4.97;2.40;;;;;;;;;;5073487;28;20036;-66
2021/05/16 00:04:48;;;;;;;5.17;2.63;;;;;;;;;;5074136;28;20028;-65
2021/05/16 00:07:14;;;;;;;5.13;2.57;;;;;;;;;;5063690;28;20064;-66
2021/05/16 00:09:40;;;;;;;6.20;2.43;;;;;;;;;;5071999;28;20021;-66
2021/05/16 00:12:06;;;;;;;4.93;2.50;;;;;;;;;;5069702;28;20063;-66
2021/05/16 00:14:31;;;;;;;5.33;2.60;;;;;;;;;;5059789;28;20087;-66
2021/05/16 00:16:57;;;;;;;6.53;2.90;;;;;;;;;;5070181;28;20059;-66
2021/05/16 00:19:22;;;;;;;5.53;2.60;;;;;;;;;;5070701;28;20381;-66
2021/05/16 00:21:47;;;;;;;5.93;2.87;;;;;;;;;;5072534;28;20037;-66
2021/05/16 00:24:13;;;;;;;6.37;2.80;;;;;;;;;;5070232;28;20157;-66
2021/05/16 00:26:38;;;;;;;8.40;2.80;;;;;;;;;;5071634;28;20032;-66
2021/05/16 00:29:04;;;;;;;7.73;3.70;;;;;;;;;;5072973;28;20025;-65
2021/05/16 00:31:29;;;;;;;7.47;3.40;;;;;;;;;;5072714;28;20032;-66
2021/05/16 00:33:56;;;;;;;7.13;3.50;;;;;;;;;;5072146;28;20032;-66
2021/05/16 00:36:21;;;;;;;7.83;3.47;;;;;;;;;;5061253;28;20539;-66
2021/05/16 00:38:46;;;;;;;7.83;3.73;;;;;;;;;;5073762;28;20060;-66
2021/05/16 00:41:12;;;;;;;9.00;4.03;;;;;;;;;;5070792;28;20090;-66
2021/05/16 00:43:37;;;;;;;8.40;3.63;;;;;;;;;;5074358;28;20028;-66
2021/05/16 00:46:02;;;;;;;8.50;3.80;;;;;;;;;;5071874;28;20029;-66
2021/05/16 00:48:27;;;;;;;7.83;3.83;;;;;;;;;;5073466;28;20032;-66
2021/05/16 00:50:53;;;;;;;7.53;3.23;;;;;;;;;;5073910;28;20444;-66
2021/05/16 00:53:22;;;;;;;8.23;3.77;;;;;;;;;;5070038;28;20025;-66
2021/05/16 00:55:50;;;;;;;7.50;3.30;;;;;;;;;;5066792;28;20028;-66
2021/05/16 00:58:16;;;;;;;7.87;3.80;;;;;;;;;;5055176;28;20024;-66
2021/05/16 01:00:41;;;;;;;6.13;3.27;;;;;;;;;;5060739;28;20028;-66
2021/05/16 01:03:10;;;;;;;7.67;3.63;;;;;;;;;;5069124;28;20393;-66
2021/05/16 01:05:36;;;;;;;8.60;3.60;;;;;;;;;;5069813;28;20029;-66
2021/05/16 01:08:02;;;;;;;6.70;3.37;;;;;;;;;;5073126;28;20067;-66
2021/05/16 01:10:27;;;;;;;7.27;3.33;;;;;;;;;;5073689;28;20106;-66
2021/05/16 01:12:55;;;;;;;7.33;3.70;;;;;;;;;;5073701;28;20103;-66
2021/05/16 01:15:21;;;;;;;8.60;3.93;;;;;;;;;;5073670;28;20101;-66
2021/05/16 01:17:47;;;;;;;9.07;4.10;;;;;;;;;;5072651;28;20051;-66
2021/05/16 01:20:14;;;;;;;8.00;3.90;;;;;;;;;;5070105;28;20029;-66
2021/05/16 01:22:40;;;;;;;9.70;4.07;;;;;;;;;;5066561;28;20439;-66
2021/05/16 01:25:06;;;;;;;8.13;3.93;;;;;;;;;;5072574;28;20060;-66
2021/05/16 01:27:31;;;;;;;9.20;3.90;;;;;;;;;;5074564;28;20081;-66
2021/05/16 01:29:57;;;;;;;7.83;3.80;;;;;;;;;;5054596;28;20516;-66
2021/05/16 01:32:23;;;;;;;8.23;4.00;;;;;;;;;;5072888;28;20035;-66
2021/05/16 01:34:48;;;;;;;8.23;4.20;;;;;;;;;;5072132;28;20030;-66
2021/05/16 01:37:14;;;;;;;9.97;4.57;;;;;;;;;;5073525;28;20536;-66
2021/05/16 01:39:39;;;;;;;7.23;3.77;;;;;;;;;;5073508;28;20024;-66
2021/05/16 01:42:05;;;;;;;8.93;4.33;;;;;;;;;;5073037;28;20086;-66
2021/05/16 01:44:31;;;;;;;12.00;4.33;;;;;;;;;;5073236;28;20060;-66
2021/05/16 01:47:01;;;;;;;10.50;4.50;;;;;;;;;;5065460;28;20082;-66
2021/05/16 01:49:26;;;;;;;9.20;4.50;;;;;;;;;;5072931;28;20036;-66
2021/05/16 01:51:51;;;;;;;10.43;4.73;;;;;;;;;;5071835;28;20403;-66
2021/05/16 01:54:18;;;;;;;9.00;4.67;;;;;;;;;;5073105;28;20396;-66
2021/05/16 01:56:43;;;;;;;9.70;4.67;;;;;;;;;;5068644;28;20032;-66
2021/05/16 01:59:08;;;;;;;12.17;5.10;;;;;;;;;;5070599;28;20032;-66
2021/05/16 02:01:34;;;;;;;11.20;5.20;;;;;;;;;;5073013;28;20033;-66
2021/05/16 02:03:59;;;;;;;10.57;5.07;;;;;;;;;;5072530;28;20421;-66
2021/05/16 02:06:25;;;;;;;9.97;4.70;;;;;;;;;;5072754;28;20107;-66
2021/05/16 02:08:50;;;;;;;11.10;5.00;;;;;;;;;;5072947;28;20039;-66
2021/05/16 02:11:15;;;;;;;9.97;4.93;;;;;;;;;;5072551;28;20356;-66
2021/05/16 02:13:41;;;;;;;12.80;5.40;;;;;;;;;;5072346;28;20028;-66
2021/05/16 02:16:07;;;;;;;11.10;4.77;;;;;;;;;;5054466;28;20043;-66
2021/05/16 02:18:33;;;;;;;12.00;4.73;;;;;;;;;;5072780;28;20468;-66
2021/05/16 02:20:59;;;;;;;10.40;4.90;;;;;;;;;;5072747;28;20020;-66
2021/05/16 02:23:24;;;;;;;9.73;4.67;;;;;;;;;;5072338;28;20028;-66
2021/05/16 02:25:50;;;;;;;10.87;5.03;;;;;;;;;;5068377;28;20047;-66
2021/05/16 02:28:15;;;;;;;11.77;4.83;;;;;;;;;;5073034;28;20017;-66
2021/05/16 02:30:40;;;;;;;11.13;5.33;;;;;;;;;;5072371;28;20029;-66
2021/05/16 02:33:06;;;;;;;12.27;4.93;;;;;;;;;;5073587;28;20056;-66
2021/05/16 02:35:31;;;;;;;13.70;4.93;;;;;;;;;;5072198;28;20542;-66
2021/05/16 02:37:56;;;;;;;10.70;5.13;;;;;;;;;;5072725;28;20024;-65
2021/05/16 02:40:22;;;;;;;13.60;5.93;;;;;;;;;;5071098;28;20074;-66
2021/05/16 02:42:47;;;;;;;11.60;4.97;;;;;;;;;;5073054;28;20025;-65
2021/05/16 02:45:13;;;;;;;10.63;5.13;;;;;;;;;;5071931;28;20032;-66
2021/05/16 02:47:38;;;;;;;15.17;5.50;;;;;;;;;;5073220;28;20099;-66
2021/05/16 02:50:04;;;;;;;12.17;5.53;;;;;;;;;;5072068;28;20421;-65
2021/05/16 02:52:29;;;;;;;11.90;5.47;;;;;;;;;;5072924;28;20074;-66
2021/05/16 02:54:55;;;;;;;12.13;5.73;;;;;;;;;;5071357;28;20028;-65
2021/05/16 02:57:21;;;;;;;11.63;5.83;;;;;;;;;;5071731;28;20025;-66
2021/05/16 02:59:47;;;;;;;13.03;5.93;;;;;;;;;;5071294;28;20031;-65
2021/05/16 03:02:12;;;;;;;12.90;5.80;;;;;;;;;;5073377;28;20024;-66
2021/05/16 03:04:37;;;;;;;12.73;5.50;;;;;;;;;;5071844;28;20508;-66
2021/05/16 03:07:02;;;;;;;16.30;5.87;;;;;;;;;;5072449;28;20013;-66
2021/05/16 03:09:30;;;;;;;14.63;6.63;;;;;;;;;;5071368;28;20027;-65
2021/05/16 03:11:55;;;;;;;12.80;6.33;;;;;;;;;;5071442;28;20063;-65
2021/05/16 03:14:20;;;;;;;16.77;6.77;;;;;;;;;;5070514;28;20052;-65
2021/05/16 03:16:45;;;;;;;12.20;6.10;;;;;;;;;;5066514;28;20031;-65
2021/05/16 03:19:11;;;;;;;15.93;6.57;;;;;;;;;;5072182;28;20060;-65
2021/05/16 03:21:36;;;;;;;16.87;6.53;;;;;;;;;;5071477;28;20428;-65
2021/05/16 03:24:02;;;;;;;16.27;6.80;;;;;;;;;;5071179;28;20099;-65
2021/05/16 03:26:29;;;;;;;13.70;6.97;;;;;;;;;;5071401;28;20039;-65
2021/05/16 03:28:54;;;;;;;17.20;6.27;;;;;;;;;;5055999;28;20055;-65
2021/05/16 03:31:20;;;;;;;36.33;7.40;;;;;;;;;;5075784;28;20048;-66
2021/05/16 03:33:45;;;;;;;19.90;7.73;;;;;;;;;;5076020;28;20037;-65
2021/05/16 03:36:10;;;;;;;18.60;7.30;;;;;;;;;;5075736;28;20479;-66
2021/05/16 03:38:35;;;;;;;16.40;7.07;;;;;;;;;;5075246;28;20090;-66
2021/05/16 03:41:01;;;;;;;15.23;7.47;;;;;;;;;;5075034;28;20055;-65
2021/05/16 03:43:27;;;;;;;20.10;6.97;;;;;;;;;;5076260;28;20036;-65
2021/05/16 03:45:52;;;;;;;17.17;7.30;;;;;;;;;;5074384;28;20457;-66
2021/05/16 03:48:17;;;;;;;15.67;7.60;;;;;;;;;;5074424;28;20028;-66
2021/05/16 03:50:43;;;;;;;15.93;6.53;;;;;;;;;;5074907;28;20473;-66
2021/05/16 03:53:08;;;;;;;20.03;6.90;;;;;;;;;;5075408;28;20107;-65
2021/05/16 03:55:34;;;;;;;14.60;7.57;;;;;;;;;;5074916;28;20037;-65
2021/05/16 03:57:59;;;;;;;15.57;6.50;;;;;;;;;;5068835;28;20021;-65
2021/05/16 04:00:24;;;;;;;18.33;7.13;;;;;;;;;;5073315;28;20124;-65
2021/05/16 04:02:50;;;;;;;16.63;6.40;;;;;;;;;;5074000;28;20055;-66
2021/05/16 04:05:15;;;;;;;16.47;6.13;;;;;;;;;;5072531;28;20037;-66
2021/05/16 04:07:41;;;;;;;15.07;6.50;;;;;;;;;;5075893;28;20529;-66
2021/05/16 04:10:07;;;;;;;14.30;6.27;;;;;;;;;;5071978;28;20358;-65
2021/05/16 04:12:32;;;;;;;17.40;6.80;;;;;;;;;;5074166;28;20063;-66
2021/05/16 04:14:57;;;;;;;13.90;6.27;;;;;;;;;;5072996;28;20024;-65
2021/05/16 04:17:22;;;;;;;14.23;6.57;;;;;;;;;;5073020;28;20032;-66
2021/05/16 04:19:48;;;;;;;11.50;6.60;;;;;;;;;;5074844;28;20028;-66
2021/05/16 04:22:13;;;;;;;16.40;6.80;;;;;;;;;;5073666;28;20410;-66
2021/05/16 04:24:38;;;;;;;21.20;7.40;;;;;;;;;;5074952;28;20047;-65
2021/05/16 04:27:04;;;;;;;19.87;6.77;;;;;;;;;;5074341;28;20059;-65
2021/05/16 04:29:30;;;;;;;15.03;6.40;;;;;;;;;;5074743;28;20016;-65
2021/05/16 04:31:55;;;;;;;12.83;5.93;;;;;;;;;;5074953;28;20104;-66
2021/05/16 04:34:20;;;;;;;15.10;6.10;;;;;;;;;;5074330;28;20067;-65
2021/05/16 04:36:45;;;;;;;20.30;6.80;;;;;;;;;;5075226;28;20036;-66
2021/05/16 04:39:11;;;;;;;15.33;5.83;;;;;;;;;;5055900;28;20031;-66
2021/05/16 04:41:36;;;;;;;21.83;6.27;;;;;;;;;;5069673;28;20465;-65
2021/05/16 04:44:02;;;;;;;13.83;5.60;;;;;;;;;;5075014;28;20043;-66
2021/05/16 04:46:27;;;;;;;15.07;5.93;;;;;;;;;;5073716;28;20509;-66
2021/05/16 04:48:53;;;;;;;14.20;5.70;;;;;;;;;;5075260;28;20028;-66
2021/05/16 04:51:18;;;;;;;15.20;5.87;;;;;;;;;;5072595;28;20028;-66
2021/05/16 04:53:44;;;;;;;16.00;5.43;;;;;;;;;;5074645;28;20054;-66
2021/05/16 04:56:09;;;;;;;16.47;6.17;;;;;;;;;;5073625;28;20031;-65
2021/05/16 04:58:34;;;;;;;12.83;5.57;;;;;;;;;;5074693;28;20078;-65
2021/05/16 05:01:00;;;;;;;22.10;5.70;;;;;;;;;;5068907;28;20021;-65
2021/05/16 05:03:26;;;;;;;21.73;6.13;;;;;;;;;;5073511;28;20044;-66
2021/05/16 05:05:52;;;;;;;15.33;5.97;;;;;;;;;;5073002;28;20026;-66
2021/05/16 05:08:17;;;;;;;15.10;5.57;;;;;;;;;;5074892;28;20048;-66
2021/05/16 05:10:43;;;;;;;19.53;6.07;;;;;;;;;;5072655;28;20051;-66
2021/05/16 05:13:08;;;;;;;16.20;6.13;;;;;;;;;;5074677;28;20036;-66
2021/05/16 05:15:33;;;;;;;24.33;6.27;;;;;;;;;;5073400;28;20032;-66
2021/05/16 05:17:58;;;;;;;14.83;5.80;;;;;;;;;;5073083;28;20025;-67
2021/05/16 05:20:24;;;;;;;12.20;5.43;;;;;;;;;;5073142;28;20081;-66
2021/05/16 05:22:49;;;;;;;12.50;5.47;;;;;;;;;;5066645;28;20025;-66
2021/05/16 05:25:14;;;;;;;12.30;5.43;;;;;;;;;;5068269;28;20031;-66
2021/05/16 05:27:40;;;;;;;13.50;5.27;;;;;;;;;;5074106;28;20024;-66
2021/05/16 05:30:05;;;;;;;12.33;4.40;;;;;;;;;;5072618;28;20028;-66
2021/05/16 05:32:31;;;;;;;16.47;4.63;;;;;;;;;;5072006;28;20123;-66
2021/05/16 05:34:56;;;;;;;12.40;4.80;;;;;;;;;;5073970;28;20356;-66
2021/05/16 05:37:21;;;;;;;10.43;5.50;;;;;;;;;;5070308;28;20436;-66
2021/05/16 05:39:47;;;;;;;15.07;5.87;;;;;;;;;;5072835;28;20040;-66
2021/05/16 05:42:12;;;;;;;14.17;5.47;;;;;;;;;;5070594;28;20059;-66
2021/05/16 05:44:40;;;;;;;15.77;5.20;;;;;;;;;;5073748;28;20036;-66
2021/05/16 05:47:05;;;;;;;19.53;5.70;;;;;;;;;;5068852;28;20150;-66
2021/05/16 05:49:30;;;;;;;14.37;4.80;;;;;;;;;;5072322;28;20043;-66
2021/05/16 05:51:59;;;;;;;10.83;4.67;;;;;;;;;;5071906;28;20174;-66
2021/05/16 05:54:24;;;;;;;15.97;5.73;;;;;;;;;;5072619;28;20412;-66
2021/05/16 05:56:49;;;;;;;13.40;4.80;;;;;;;;;;5073191;28;20025;-66
2021/05/16 05:59:16;;;;;;;19.60;5.07;;;;;;;;;;5072469;28;20066;-65
2021/05/16 06:01:41;;;;;;;12.13;4.83;;;;;;;;;;5073036;28;20028;-65
2021/05/16 06:04:07;;;;;;;11.63;4.57;;;;;;;;;;5062580;28;20056;-66
2021/05/16 06:06:32;;;;;;;12.30;5.40;;;;;;;;;;5067873;28;20024;-66
2021/05/16 06:08:57;;;;;;;12.17;5.07;;;;;;;;;;5073367;28;20016;-66
2021/05/16 06:11:22;;;;;;;16.00;5.57;;;;;;;;;;5059865;28;20028;-65
2021/05/16 06:13:48;;;;;;;16.00;5.43;;;;;;;;;;5069326;28;20354;-65
2021/05/16 06:16:13;;;;;;;13.53;4.47;;;;;;;;;;5069909;28;20024;-65
2021/05/16 06:18:38;;;;;;;13.17;4.77;;;;;;;;;;5073340;28;20095;-66
2021/05/16 06:21:04;;;;;;;14.07;5.90;;;;;;;;;;5069136;28;20024;-65
2021/05/16 06:23:43;;;;;;;12.63;4.57;;;;;;;;;;5072418;28;20032;-65
2021/05/16 06:26:08;;;;;;;10.73;4.50;;;;;;;;;;5071725;28;20025;-66
2021/05/16 06:28:34;;;;;;;12.30;5.07;;;;;;;;;;5068899;28;20017;-66
2021/05/16 06:30:59;;;;;;;13.07;4.87;;;;;;;;;;5070458;28;20020;-66
2021/05/16 06:33:24;;;;;;;12.70;5.17;;;;;;;;;;5070597;28;20044;-66
2021/05/16 06:35:49;;;;;;;10.03;4.07;;;;;;;;;;5060220;28;20082;-66
2021/05/16 06:38:15;;;;;;;14.57;5.20;;;;;;;;;;5068213;28;20028;-65
2021/05/16 06:40:41;;;;;;;10.13;4.97;;;;;;;;;;5064875;28;20078;-65
2021/05/16 06:43:06;;;;;;;15.87;4.90;;;;;;;;;;5068825;28;20404;-65
2021/05/16 06:45:32;;;;;;;11.40;5.00;;;;;;;;;;5071701;28;20024;-65
2021/05/16 06:47:57;;;;;;;8.87;4.03;;;;;;;;;;5071530;28;20085;-66
2021/05/16 06:50:23;;;;;;;13.77;4.30;;;;;;;;;;5067420;28;20108;-65
2021/05/16 06:52:48;;;;;;;15.70;4.73;;;;;;;;;;5069107;28;20379;-66
2021/05/16 06:55:13;;;;;;;12.63;4.37;;;;;;;;;;5072018;28;20024;-65
2021/05/16 06:57:41;;;;;;;11.07;4.67;;;;;;;;;;5071530;28;20035;-65
2021/05/16 07:00:07;;;;;;;12.80;4.40;;;;;;;;;;5071382;28;20031;-65
2021/05/16 07:02:32;;;;;;;12.70;4.23;;;;;;;;;;5064603;28;20024;-65
2021/05/16 07:04:58;;;;;;;12.97;4.53;;;;;;;;;;5066541;28;20028;-65
2021/05/16 07:07:23;;;;;;;13.90;4.43;;;;;;;;;;5071052;28;20036;-66
2021/05/16 07:09:48;;;;;;;8.57;4.20;;;;;;;;;;5070909;28;20539;-65
2021/05/16 07:12:14;;;;;;;12.33;4.47;;;;;;;;;;5072071;28;20060;-66
2021/05/16 07:14:39;;;;;;;17.00;5.40;;;;;;;;;;5072326;28;20457;-66
2021/05/16 07:17:04;;;;;;;9.37;3.83;;;;;;;;;;5071947;28;20107;-65
2021/05/16 07:19:30;;;;;;;13.57;4.27;;;;;;;;;;5070347;28;20040;-65
2021/05/16 07:21:55;;;;;;;8.73;4.90;;;;;;;;;;5071538;28;20060;-65
2021/05/16 07:24:20;;;;;;;10.37;4.27;;;;;;;;;;5071984;28;20071;-65
2021/05/16 07:26:45;;;;;;;11.70;4.43;;;;;;;;;;5070551;28;20060;-65
2021/05/16 07:29:11;;;;;;;8.67;3.10;;;;;;;;;;5070886;28;20033;-66
2021/05/16 07:31:36;;;;;;;10.37;3.70;;;;;;;;;;5071416;28;20028;-65
2021/05/16 07:34:01;;;;;;;12.57;3.70;;;;;;;;;;5071774;28;20375;-65
2021/05/16 07:36:26;;;;;;;8.40;2.73;;;;;;;;;;5063734;28;20019;-66
2021/05/16 07:38:52;;;;;;;8.50;3.67;;;;;;;;;;5068397;28;20109;-66
2021/05/16 07:41:17;;;;;;;10.63;4.07;;;;;;;;;;5068272;28;20372;-66
2021/05/16 07:43:42;;;;;;;12.37;3.60;;;;;;;;;;5071881;28;20074;-66
2021/05/16 07:46:09;;;;;;;8.23;3.17;;;;;;;;;;5069459;28;20032;-66
2021/05/16 07:48:34;;;;;;;7.50;3.00;;;;;;;;;;5069639;28;20033;-68
2021/05/16 07:51:00;;;;;;;10.33;3.77;;;;;;;;;;5069045;28;20039;-68
2021/05/16 07:53:26;;;;;;;9.63;3.60;;;;;;;;;;5070964;28;20070;-67
2021/05/16 07:55:51;;;;;;;16.80;3.77;;;;;;;;;;5070048;28;20428;-66
2021/05/16 07:58:17;;;;;;;6.47;3.30;;;;;;;;;;5071729;28;20056;-66
2021/05/16 08:00:42;;;;;;;8.23;3.47;;;;;;;;;;5061649;28;20522;-67
2021/05/16 08:03:07;;;;;;;13.00;3.40;;;;;;;;;;5070895;28;20378;-70
2021/05/16 08:05:32;;;;;;;8.93;3.33;;;;;;;;;;5068198;28;20021;-74
2021/05/16 08:07:58;;;;;;;7.97;3.60;;;;;;;;;;5071326;28;20473;-75
2021/05/16 08:10:23;;;;;;;6.13;2.40;;;;;;;;;;5071613;28;20020;-71
2021/05/16 08:12:49;;;;;;;11.97;3.30;;;;;;;;;;5069665;28;20028;-69
2021/05/16 08:15:14;;;;;;;10.00;3.30;;;;;;;;;;5071558;28;20035;-67
2021/05/16 08:17:40;;;;;;;10.07;3.60;;;;;;;;;;5071096;28;20028;-67
2021/05/16 08:20:06;;;;;;;10.23;3.60;;;;;;;;;;5074748;28;20028;-68
2021/05/16 08:22:31;;;;;;;15.60;3.77;;;;;;;;;;5069440;28;20028;-71
2021/05/16 08:24:56;;;;;;;7.67;3.27;;;;;;;;;;5072909;28;20024;-69
2021/05/16 08:27:22;;;;;;;10.50;3.60;;;;;;;;;;5074133;28;20108;-68
2021/05/16 08:29:47;;;;;;;13.63;4.30;;;;;;;;;;5074421;28;20198;-68
2021/05/16 08:32:14;;;;;;;7.77;2.90;;;;;;;;;;5074819;28;20020;-68
2021/05/16 08:34:40;;;;;;;12.53;3.63;;;;;;;;;;5074010;28;20040;-72
2021/05/16 08:37:07;;;;;;;11.50;3.87;;;;;;;;;;5072469;28;20532;-74
2021/05/16 08:39:32;;;;;;;7.43;3.03;;;;;;;;;;5075281;28;20028;-75
2021/05/16 08:41:57;;;;;;;10.07;3.40;;;;;;;;;;5074138;28;20522;-72
2021/05/16 08:44:23;;;;;;;15.43;3.70;;;;;;;;;;5073975;28;20033;-69
2021/05/16 08:46:49;;;;;;;6.20;2.77;;;;;;;;;;5074436;28;20023;-69
2021/05/16 08:49:14;;;;;;;8.40;3.60;;;;;;;;;;5072648;28;20365;-69
2021/05/16 08:51:44;;;;;;;12.00;3.80;;;;;;;;;;5072438;28;20031;-67
2021/05/16 08:54:09;;;;;;;11.13;2.77;;;;;;;;;;5072267;28;20420;-69
2021/05/16 08:56:35;;;;;;;17.83;3.70;;;;;;;;;;5070619;28;20028;-68
2021/05/16 08:59:00;;;;;;;11.30;3.00;;;;;;;;;;5071810;28;20048;-67
2021/05/16 09:01:28;;;;;;;14.67;4.10;;;;;;;;;;5072683;28;20024;-66
2021/05/16 09:03:54;;;;;;;9.20;3.97;;;;;;;;;;5072677;28;20048;-66
2021/05/16 09:06:31;;;;;;;9.50;3.47;;;;;;;;;;5073144;28;20020;-67
2021/05/16 09:08:56;;;;;;;13.00;3.17;;;;;;;;;;5063821;28;20101;-66
2021/05/16 09:11:21;;;;;;;11.93;3.70;;;;;;;;;;5061168;28;20052;-66
2021/05/16 09:13:52;;;;;;;10.43;3.53;;;;;;;;;;5073822;28;20031;-67
2021/05/16 09:16:17;;;;;;;17.73;3.60;;;;;;;;;;5072954;28;20026;-67
2021/05/16 09:18:47;;;;;;;9.27;2.90;;;;;;;;;;5074445;28;20107;-67
2021/05/16 09:21:31;;;;;;;11.63;3.20;;;;;;;;;;5072457;28;20027;-67
2021/05/16 09:23:59;;;;;;;13.67;3.00;;;;;;;;;;5073425;28;20459;-68
2021/05/16 09:26:25;;;;;;;10.97;3.60;;;;;;;;;;5073707;28;20024;-68
2021/05/16 09:28:50;;;;;;;13.33;4.00;;;;;;;;;;5063098;28;20028;-67
2021/05/16 09:31:30;;;;;;;12.60;3.40;;;;;;;;;;5063976;28;20036;-66
2021/05/16 09:34:02;;;;;;;10.00;2.57;;;;;;;;;;5061810;28;20094;-66
2021/05/16 09:36:32;;;;;;;8.60;3.00;;;;;;;;;;5069258;28;20032;-67
2021/05/16 09:39:10;;;;;;;13.43;3.80;;;;;;;;;;5051159;28;20365;-67
2021/05/16 09:41:35;;;;;;;11.37;3.37;;;;;;;;;;5061571;28;20028;-68
2021/05/16 09:44:00;;;;;;;13.43;3.40;;;;;;;;;;5065916;28;20035;-68
2021/05/16 09:46:25;;;;;;;9.60;3.00;;;;;;;;;;5068408;28;20039;-68
2021/05/16 09:48:51;;;;;;;9.23;2.77;;;;;;;;;;5068278;28;20484;-70
2021/05/16 09:51:19;;;;;;;7.70;3.17;;;;;;;;;;5068947;28;20022;-70
2021/05/16 09:53:45;;;;;;;12.23;3.40;;;;;;;;;;5058655;28;20056;-68
2021/05/16 09:56:14;;;;;;;7.47;3.30;;;;;;;;;;5066800;28;20028;-67
2021/05/16 09:58:39;;;;;;;11.37;3.63;;;;;;;;;;5068652;28;20604;-67
2021/05/16 10:01:04;;;;;;;9.07;2.90;;;;;;;;;;5068939;28;20036;-68
2021/05/16 10:03:30;;;;;;;8.03;2.87;;;;;;;;;;5067680;28;20072;-71
2021/05/16 10:05:56;;;;;;;10.20;2.63;;;;;;;;;;5068053;28;20477;-69
2021/05/16 10:08:21;;;;;;;7.18;2.20;;;;;;;;;;5066595;28;20039;-67
2021/05/16 10:10:46;;;;;;;11.93;2.80;;;;;;;;;;5065455;28;20013;-67
2021/05/16 10:13:11;;;;;;;10.53;2.80;;;;;;;;;;5062803;28;20031;-66
2021/05/16 10:15:37;;;;;;;6.33;2.30;;;;;;;;;;5064627;28;20089;-66
2021/05/16 10:18:06;;;;;;;8.37;2.33;;;;;;;;;;5062953;28;20124;-66
2021/05/16 10:20:32;;;;;;;6.63;3.10;;;;;;;;;;5062650;28;20028;-66
2021/05/16 10:23:00;;;;;;;12.80;3.60;;;;;;;;;;5063320;28;20021;-66
2021/05/16 10:25:42;;;;;;;10.23;2.87;;;;;;;;;;5064416;28;20055;-66
2021/05/16 10:28:08;;;;;;;9.23;3.03;;;;;;;;;;5065531;28;20036;-67
2021/05/16 10:30:33;;;;;;;15.17;2.90;;;;;;;;;;5065101;28;20020;-66
2021/05/16 10:32:58;;;;;;;6.13;2.67;;;;;;;;;;5067108;28;20102;-66
2021/05/16 10:35:23;;;;;;;9.40;2.87;;;;;;;;;;5065695;28;20056;-67
2021/05/16 10:37:55;;;;;;;10.03;2.60;;;;;;;;;;5061602;28;20035;-67
2021/05/16 10:40:24;;;;;;;9.25;3.30;;;;;;;;;;5064305;28;20028;-67
2021/05/16 10:42:51;;;;;;;10.67;2.37;;;;;;;;;;5068883;28;20044;-68
2021/05/16 10:45:20;;;;;;;7.33;2.63;;;;;;;;;;5068597;28;20031;-68
2021/05/16 10:47:50;;;;;;;7.87;2.77;;;;;;;;;;5069679;28;20033;-67
2021/05/16 10:50:18;;;;;;;11.85;3.75;;;;;;;;;;5065157;28;20626;-68
2021/05/16 10:52:54;;;;;;;7.70;2.38;;;;;;;;;;5056590;28;20075;-67
2021/05/16 10:55:28;;;;;;;7.50;2.90;;;;;;;;;;5065848;28;20036;-67
2021/05/16 10:57:54;;;;;;;6.90;1.90;;;;;;;;;;5069521;28;20544;-66
2021/05/16 11:00:25;;;;;;;6.33;1.93;;;;;;;;;;5048624;28;20033;-67
2021/05/16 11:03:07;;;;;;;5.45;1.88;;;;;;;;;;5068821;28;20059;-67
2021/05/16 11:08:10;;;;;;;11.17;3.23;;;;;;;;;;5060466;28;20071;-68
2021/05/16 11:10:36;;;;;;;5.60;1.70;;;;;;;;;;5056840;28;20029;-67
2021/05/16 11:13:11;;;;;;;9.32;1.95;;;;;;;;;;5067532;28;20121;-67
2021/05/16 11:15:36;;;;;;;6.53;1.90;;;;;;;;;;5061835;28;20035;-67
2021/05/16 11:18:06;;;;;;;4.93;1.85;;;;;;;;;;5065419;28;20024;-67
2021/05/16 11:20:31;;;;;;;8.05;1.80;;;;;;;;;;5062456;28;20485;-67
2021/05/16 11:22:57;;;;;;;6.88;2.17;;;;;;;;;;5069344;28;20039;-67
2021/05/16 11:25:25;;;;;;;6.90;2.00;;;;;;;;;;5067629;28;20083;-66
2021/05/16 11:27:50;;;;;;;5.17;2.13;;;;;;;;;;5062235;28;20020;-66
2021/05/16 11:30:16;;;;;;;6.87;2.00;;;;;;;;;;5062616;28;20029;-66
2021/05/16 11:32:41;;;;;;;6.47;2.13;;;;;;;;;;5061919;28;20028;-66
2021/05/16 11:35:17;;;;;;;9.17;2.10;;;;;;;;;;5065061;28;20023;-66
2021/05/16 11:37:45;;;;;;;8.33;1.97;;;;;;;;;;5068048;28;20028;-67
2021/05/16 11:40:14;;;;;;;6.67;2.10;;;;;;;;;;5066477;28;20473;-66
2021/05/16 11:42:40;;;;;;;9.43;2.35;;;;;;;;;;5068638;28;20425;-67
2021/05/16 11:45:07;;;;;;;7.65;1.63;;;;;;;;;;5067360;28;20485;-67
2021/05/16 11:47:39;;;;;;;6.43;2.25;;;;;;;;;;5068498;28;20782;-66
2021/05/16 11:50:05;;;;;;;4.50;1.60;;;;;;;;;;5062942;28;20529;-66
2021/05/16 11:52:31;;;;;;;6.40;2.08;;;;;;;;;;5072743;28;20411;-66
2021/05/16 11:55:00;;;;;;;7.75;2.47;;;;;;;;;;5069025;28;20107;-66
2021/05/16 11:57:26;;;;;;;7.53;2.63;;;;;;;;;;5070053;28;20047;-67
2021/05/16 11:59:52;;;;;;;8.90;2.13;;;;;;;;;;5069488;28;20024;-66
2021/05/16 12:02:17;;;;;;;9.07;2.22;;;;;;;;;;5068139;28;20035;-66
2021/05/16 12:04:42;;;;;;;7.53;1.97;;;;;;;;;;5059695;28;20044;-66
2021/05/16 12:07:08;;;;;;;7.70;2.07;;;;;;;;;;5062823;28;20108;-66
2021/05/16 12:09:37;;;;;;;5.60;2.40;;;;;;;;;;5052060;28;20027;-66
2021/05/16 12:12:02;;;;;;;5.17;1.83;;;;;;;;;;5066109;28;20120;-66
2021/05/16 12:14:30;;;;;;;6.70;2.30;;;;;;;;;;5065455;28;20111;-66
2021/05/16 12:16:59;;;;;;;7.33;1.80;;;;;;;;;;5067328;28;20035;-66
2021/05/16 12:19:26;;;;;;;8.47;2.00;;;;;;;;;;5069052;28;20112;-66
2021/05/16 12:22:11;;;;;;;4.32;1.70;;;;;;;;;;5067960;28;20109;-66
2021/05/16 12:24:45;;;;;;;7.30;1.70;;;;;;;;;;5072364;28;20407;-66
2021/05/16 12:27:20;;;;;;;6.70;1.80;;;;;;;;;;5071777;28;20060;-67
2021/05/16 12:29:47;;;;;;;5.32;1.90;;;;;;;;;;5072088;28;20027;-66
2021/05/16 12:32:19;;;;;;;4.28;1.50;;;;;;;;;;5059571;28;20030;-66
2021/05/16 12:34:44;;;;;;;;;;;;;;;;;;5067909;28;20127;-66
2021/05/16 12:37:14;;;;;;;3.74;1.60;;;;;;;;;;5065976;28;20339;-66
2021/05/16 12:39:41;;;;;;;4.57;1.17;;;;;;;;;;5061493;28;20032;-66
2021/05/16 12:42:22;;;;;;;7.65;1.60;;;;;;;;;;5060984;28;20091;-66
2021/05/16 12:44:48;;;;;;;5.85;1.48;;;;;;;;;;5066020;28;20051;-66
2021/05/16 12:47:20;;;;;;;2.70;1.20;;;;;;;;;;5059304;28;20025;-66
2021/05/16 12:49:45;;;;;;;;;;;;;;;;;;5067364;28;20027;-66
2021/05/16 12:52:10;;;;;;;3.66;1.16;;;;;;;;;;5069256;28;19912;-66
2021/05/16 12:54:39;;;;;;;4.07;1.00;;;;;;;;;;5070407;28;20110;-66
2021/05/16 12:57:09;;;;;;;2.75;1.08;;;;;;;;;;5058567;28;20499;-66
2021/05/16 12:59:36;;;;;;;4.07;1.25;;;;;;;;;;5066322;28;20057;-66
2021/05/16 13:02:09;;;;;;;5.40;1.13;;;;;;;;;;5065052;28;20028;-66
2021/05/16 13:05:03;;;;;;;5.32;1.23;;;;;;;;;;5066811;28;20561;-65
2021/05/16 13:07:47;;;;;;;3.80;1.00;;;;;;;;;;5049584;28;20686;-65
2021/05/16 13:10:29;;;;;;;4.43;1.15;;;;;;;;;;5065031;28;20078;-66
2021/05/16 13:13:05;;;;;;;5.60;1.60;;;;;;;;;;5063293;28;20024;-65
2021/05/16 13:15:37;;;;;;;3.20;1.30;;;;;;;;;;5067312;28;20032;-65
2021/05/16 13:18:21;;;;;;;4.75;1.48;;;;;;;;;;5069708;28;20491;-66
2021/05/16 13:20:46;;;;;;;4.32;1.25;;;;;;;;;;5062086;28;20045;-66
2021/05/16 13:23:38;;;;;;;6.47;2.38;;;;;;;;;;5070390;28;20040;-66
2021/05/16 13:26:03;;;;;;;4.40;1.40;;;;;;;;;;5057357;28;20470;-66
2021/05/16 13:28:29;;;;;;;7.35;1.90;;;;;;;;;;5069246;28;20340;-66
2021/05/16 13:31:01;;;;;;;4.78;1.50;;;;;;;;;;5064138;28;20035;-66
2021/05/16 13:33:26;;;;;;;;;;;;;;;;;;5071521;28;20037;-66
2021/05/16 13:35:51;;;;;;;6.55;1.80;;;;;;;;;;5066540;28;19919;-65
2021/05/16 13:38:16;;;;;;;5.07;1.70;;;;;;;;;;5061144;28;20072;-66
2021/05/16 13:40:42;;;;;;;4.00;1.50;;;;;;;;;;5061014;28;20041;-66
2021/05/16 13:43:07;;;;;;;4.38;1.30;;;;;;;;;;5061577;28;20373;-66
2021/05/16 13:45:32;;;;;;;4.05;1.50;;;;;;;;;;5068609;28;20028;-65
2021/05/16 13:47:57;;;;;;;3.85;1.25;;;;;;;;;;5065489;28;20121;-66
2021/05/16 13:50:23;;;;;;;5.38;1.30;;;;;;;;;;5068611;28;20392;-66
2021/05/16 13:52:51;;;;;;;3.60;1.20;;;;;;;;;;5069293;28;20056;-66
2021/05/16 13:55:17;;;;;;;4.63;1.30;;;;;;;;;;5067305;28;20104;-65
2021/05/16 13:57:43;;;;;;;3.85;1.30;;;;;;;;;;5060592;28;20060;-66
2021/05/16 14:00:08;;;;;;;4.83;1.73;;;;;;;;;;5070091;28;20059;-66
2021/05/16 14:02:33;;;;;;;3.50;1.20;;;;;;;;;;5066501;28;20024;-66
2021/05/16 14:04:59;;;;;;;6.17;1.27;;;;;;;;;;5058620;28;20082;-66
2021/05/16 14:07:24;;;;;;;4.50;1.30;;;;;;;;;;5070177;28;20039;-66
2021/05/16 14:09:49;;;;;;;4.63;1.70;;;;;;;;;;5068701;28;20439;-66
2021/05/16 14:12:15;;;;;;;5.40;1.57;;;;;;;;;;5068657;28;20044;-66
2021/05/16 14:14:40;;;;;;;3.70;1.30;;;;;;;;;;5067337;28;20166;-65
2021/05/16 14:17:06;;;;;;;5.30;1.70;;;;;;;;;;5057254;28;20512;-65
2021/05/16 14:19:31;;;;;;;3.47;1.20;;;;;;;;;;5069842;28;20020;-65
2021/05/16 14:21:57;;;;;;;4.80;1.70;;;;;;;;;;5067004;28;20032;-65
2021/05/16 14:24:22;;;;;;;4.93;1.70;;;;;;;;;;5068783;28;20024;-65
2021/05/16 14:26:47;;;;;;;5.50;1.53;;;;;;;;;;5065440;28;20476;-65
2021/05/16 14:29:12;;;;;;;3.97;1.38;;;;;;;;;;5065998;28;20039;-65
2021/05/16 14:31:38;;;;;;;4.50;1.60;;;;;;;;;;5068866;28;20032;-66
2021/05/16 14:34:04;;;;;;;4.32;1.45;;;;;;;;;;5062526;28;20024;-66
2021/05/16 14:36:29;;;;;;;6.37;1.80;;;;;;;;;;5063387;28;20039;-66
2021/05/16 14:39:18;;;;;;;5.33;1.53;;;;;;;;;;5065302;28;20551;-65